sensor_id;sensor_type;location;lat;lon;timestamp;P1;P2;P0
70197;PMS5003;57582;-34.876;138.628;2023-03-30T00:02:18;2.03;0.43;0.00
70197;PMS5003;57582;-34.876;138.628;2023-03-30T00:05:19;0.13;0.00;0.00
70197;PMS5003;57582;-34.876;138.628;2023-03-30T00:08:17;0.70;0.70;0.00
70197;PMS5003;57582;-34.876;138.628;2023-03-30T00:11:16;1.77;0.80;0.07
70197;PMS5003;57582;-34.876;138.628;2023-03-30T00:14:17;0.53;0.53;0.00
70197;PMS5003;57582;-34.876;138.628;2023-03-30T00:17:17;1.63;0.80;0.00
70197;PMS5003;57582;-34.876;138.628;2023-03-30T00:20:17;0.20;0.10;0.00
70197;PMS5003;57582;-34.876;138.628;2023-03-30T00:23:18;0.30;0.30;0.00
70197;PMS5003;57582;-34.876;138.628;2023-03-30T00:26:17;0.57;0.17;0.07
70197;PMS5003;57582;-34.876;138.628;2023-03-30T00:29:17;0.47;0.10;0.00
70197;PMS5003;57582;-34.876;138.628;2023-03-30T00:32:17;0.17;0.00;0.00
70197;PMS5003;57582;-34.876;138.628;2023-03-30T00:35:17;1.37;0.10;0.00
70197;PMS5003;57582;-34.876;138.628;2023-03-30T00:38:17;0.33;0.33;0.00
70197;PMS5003;57582;-34.876;138.628;2023-03-30T00:41:17;0.30;0.30;0.00
70197;PMS5003;57582;-34.876;138.628;2023-03-30T00:47:17;0.40;0.00;0.00
70197;PMS5003;57582;-34.876;138.628;2023-03-30T00:50:18;0.20;0.00;0.00
70197;PMS5003;57582;-34.876;138.628;2023-03-30T00:56:22;0.00;0.00;0.00
70197;PMS5003;57582;-34.876;138.628;2023-03-30T00:59:17;1.63;1.03;0.43
70197;PMS5003;57582;-34.876;138.628;2023-03-30T01:02:18;0.43;0.17;0.00
70197;PMS5003;57582;-34.876;138.628;2023-03-30T01:05:17;0.13;0.13;0.03
70197;PMS5003;57582;-34.876;138.628;2023-03-30T01:08:17;1.00;1.00;0.57
70197;PMS5003;57582;-34.876;138.628;2023-03-30T01:11:17;0.40;0.40;0.03
70197;PMS5003;57582;-34.876;138.628;2023-03-30T01:14:17;2.00;0.93;0.53
70197;PMS5003;57582;-34.876;138.628;2023-03-30T01:20:32;0.10;0.10;0.00
70197;PMS5003;57582;-34.876;138.628;2023-03-30T01:35:45;0.13;0.13;0.00
70197;PMS5003;57582;-34.876;138.628;2023-03-30T01:44:30;0.77;0.77;0.13
70197;PMS5003;57582;-34.876;138.628;2023-03-30T01:47:23;0.87;0.87;0.00
70197;PMS5003;57582;-34.876;138.628;2023-03-30T01:50:27;1.30;0.70;0.47
70197;PMS5003;57582;-34.876;138.628;2023-03-30T01:53:27;1.83;1.50;0.53
70197;PMS5003;57582;-34.876;138.628;2023-03-30T01:59:28;1.47;1.43;0.70
70197;PMS5003;57582;-34.876;138.628;2023-03-30T02:02:19;2.07;1.10;0.90
70197;PMS5003;57582;-34.876;138.628;2023-03-30T02:05:19;1.67;1.47;0.80
70197;PMS5003;57582;-34.876;138.628;2023-03-30T02:08:20;1.67;1.67;0.43
70197;PMS5003;57582;-34.876;138.628;2023-03-30T02:11:17;2.13;1.67;1.00
70197;PMS5003;57582;-34.876;138.628;2023-03-30T02:14:18;2.33;2.33;1.50
70197;PMS5003;57582;-34.876;138.628;2023-03-30T02:17:21;3.20;2.23;1.03
70197;PMS5003;57582;-34.876;138.628;2023-03-30T02:20:17;3.37;2.43;1.27
70197;PMS5003;57582;-34.876;138.628;2023-03-30T02:23:19;2.63;2.43;1.43
70197;PMS5003;57582;-34.876;138.628;2023-03-30T02:26:17;2.60;2.60;1.83
70197;PMS5003;57582;-34.876;138.628;2023-03-30T02:29:19;2.53;2.03;1.27
70197;PMS5003;57582;-34.876;138.628;2023-03-30T02:32:18;3.00;3.00;2.00
70197;PMS5003;57582;-34.876;138.628;2023-03-30T02:44:25;1.27;1.27;1.00
70197;PMS5003;57582;-34.876;138.628;2023-03-30T02:47:30;2.03;2.03;1.00
70197;PMS5003;57582;-34.876;138.628;2023-03-30T02:50:29;1.23;1.23;0.90
70197;PMS5003;57582;-34.876;138.628;2023-03-30T02:53:30;2.57;2.03;1.43
70197;PMS5003;57582;-34.876;138.628;2023-03-30T02:56:24;2.30;2.30;1.33
70197;PMS5003;57582;-34.876;138.628;2023-03-30T02:59:20;1.37;1.37;0.50
70197;PMS5003;57582;-34.876;138.628;2023-03-30T03:02:20;2.20;2.20;1.50
70197;PMS5003;57582;-34.876;138.628;2023-03-30T03:05:18;1.17;0.87;0.27
70197;PMS5003;57582;-34.876;138.628;2023-03-30T03:08:17;2.13;1.70;0.73
70197;PMS5003;57582;-34.876;138.628;2023-03-30T03:11:17;0.93;0.60;0.40
70197;PMS5003;57582;-34.876;138.628;2023-03-30T03:14:17;0.60;0.00;0.00
70197;PMS5003;57582;-34.876;138.628;2023-03-30T03:17:17;0.00;0.00;0.00
70197;PMS5003;57582;-34.876;138.628;2023-03-30T03:20:17;0.00;0.00;0.00
70197;PMS5003;57582;-34.876;138.628;2023-03-30T03:23:17;0.60;0.00;0.00
70197;PMS5003;57582;-34.876;138.628;2023-03-30T03:26:17;0.13;0.13;0.00
70197;PMS5003;57582;-34.876;138.628;2023-03-30T03:29:17;0.00;0.00;0.00
70197;PMS5003;57582;-34.876;138.628;2023-03-30T03:32:17;0.00;0.00;0.00
70197;PMS5003;57582;-34.876;138.628;2023-03-30T03:35:17;0.00;0.00;0.00
70197;PMS5003;57582;-34.876;138.628;2023-03-30T03:38:17;0.00;0.00;0.00
70197;PMS5003;57582;-34.876;138.628;2023-03-30T03:41:18;0.00;0.00;0.00
70197;PMS5003;57582;-34.876;138.628;2023-03-30T03:44:17;0.00;0.00;0.00
70197;PMS5003;57582;-34.876;138.628;2023-03-30T03:47:17;0.00;0.00;0.00
70197;PMS5003;57582;-34.876;138.628;2023-03-30T03:50:17;0.00;0.00;0.00
70197;PMS5003;57582;-34.876;138.628;2023-03-30T03:53:18;0.00;0.00;0.00
70197;PMS5003;57582;-34.876;138.628;2023-03-30T03:56:17;0.00;0.00;0.00
70197;PMS5003;57582;-34.876;138.628;2023-03-30T03:59:17;0.13;0.00;0.00
70197;PMS5003;57582;-34.876;138.628;2023-03-30T04:02:18;0.00;0.00;0.00
70197;PMS5003;57582;-34.876;138.628;2023-03-30T04:05:18;0.33;0.33;0.00
70197;PMS5003;57582;-34.876;138.628;2023-03-30T04:08:17;0.00;0.00;0.00
70197;PMS5003;57582;-34.876;138.628;2023-03-30T04:11:17;0.07;0.07;0.07
70197;PMS5003;57582;-34.876;138.628;2023-03-30T04:14:17;0.00;0.00;0.00
70197;PMS5003;57582;-34.876;138.628;2023-03-30T04:17:17;0.00;0.00;0.00
70197;PMS5003;57582;-34.876;138.628;2023-03-30T04:20:17;0.07;0.07;0.00
70197;PMS5003;57582;-34.876;138.628;2023-03-30T04:23:17;0.43;0.00;0.00
70197;PMS5003;57582;-34.876;138.628;2023-03-30T04:26:17;0.30;0.00;0.00
70197;PMS5003;57582;-34.876;138.628;2023-03-30T04:29:18;0.00;0.00;0.00
70197;PMS5003;57582;-34.876;138.628;2023-03-30T04:32:17;0.03;0.00;0.00
70197;PMS5003;57582;-34.876;138.628;2023-03-30T04:35:17;0.20;0.20;0.00
70197;PMS5003;57582;-34.876;138.628;2023-03-30T04:38:17;0.37;0.00;0.00
70197;PMS5003;57582;-34.876;138.628;2023-03-30T04:41:17;0.00;0.00;0.00
70197;PMS5003;57582;-34.876;138.628;2023-03-30T04:44:17;0.37;0.37;0.33
70197;PMS5003;57582;-34.876;138.628;2023-03-30T04:47:17;0.63;0.00;0.00
70197;PMS5003;57582;-34.876;138.628;2023-03-30T04:50:17;0.17;0.07;0.00
70197;PMS5003;57582;-34.876;138.628;2023-03-30T04:53:18;0.00;0.00;0.00
70197;PMS5003;57582;-34.876;138.628;2023-03-30T04:56:17;0.00;0.00;0.00
70197;PMS5003;57582;-34.876;138.628;2023-03-30T04:59:17;0.03;0.03;0.00
70197;PMS5003;57582;-34.876;138.628;2023-03-30T05:02:17;0.17;0.17;0.00
70197;PMS5003;57582;-34.876;138.628;2023-03-30T05:05:18;0.00;0.00;0.00
70197;PMS5003;57582;-34.876;138.628;2023-03-30T05:08:17;0.00;0.00;0.00
70197;PMS5003;57582;-34.876;138.628;2023-03-30T05:11:17;0.00;0.00;0.00
70197;PMS5003;57582;-34.876;138.628;2023-03-30T05:14:17;0.00;0.00;0.00
70197;PMS5003;57582;-34.876;138.628;2023-03-30T05:17:18;0.00;0.00;0.00
70197;PMS5003;57582;-34.876;138.628;2023-03-30T05:20:17;0.00;0.00;0.00
70197;PMS5003;57582;-34.876;138.628;2023-03-30T05:23:17;0.00;0.00;0.00
70197;PMS5003;57582;-34.876;138.628;2023-03-30T05:26:18;0.00;0.00;0.00
70197;PMS5003;57582;-34.876;138.628;2023-03-30T05:29:19;0.50;0.00;0.00
70197;PMS5003;57582;-34.876;138.628;2023-03-30T05:32:17;0.00;0.00;0.00
70197;PMS5003;57582;-34.876;138.628;2023-03-30T05:35:17;0.00;0.00;0.00
70197;PMS5003;57582;-34.876;138.628;2023-03-30T05:38:17;0.00;0.00;0.00
70197;PMS5003;57582;-34.876;138.628;2023-03-30T05:41:18;0.00;0.00;0.00
70197;PMS5003;57582;-34.876;138.628;2023-03-30T05:44:17;0.33;0.33;0.00
70197;PMS5003;57582;-34.876;138.628;2023-03-30T05:47:17;0.00;0.00;0.00
70197;PMS5003;57582;-34.876;138.628;2023-03-30T05:50:17;0.13;0.00;0.00
70197;PMS5003;57582;-34.876;138.628;2023-03-30T05:53:18;0.00;0.00;0.00
70197;PMS5003;57582;-34.876;138.628;2023-03-30T05:56:17;0.00;0.00;0.00
70197;PMS5003;57582;-34.876;138.628;2023-03-30T05:59:17;0.00;0.00;0.00
70197;PMS5003;57582;-34.876;138.628;2023-03-30T06:02:17;0.00;0.00;0.00
70197;PMS5003;57582;-34.876;138.628;2023-03-30T06:05:18;0.00;0.00;0.00
70197;PMS5003;57582;-34.876;138.628;2023-03-30T06:08:17;0.00;0.00;0.00
70197;PMS5003;57582;-34.876;138.628;2023-03-30T06:11:17;0.00;0.00;0.00
70197;PMS5003;57582;-34.876;138.628;2023-03-30T06:14:18;0.33;0.00;0.00
70197;PMS5003;57582;-34.876;138.628;2023-03-30T06:17:18;0.00;0.00;0.00
70197;PMS5003;57582;-34.876;138.628;2023-03-30T06:20:18;0.00;0.00;0.00
70197;PMS5003;57582;-34.876;138.628;2023-03-30T06:23:17;0.33;0.33;0.00
70197;PMS5003;57582;-34.876;138.628;2023-03-30T06:26:17;0.27;0.03;0.00
70197;PMS5003;57582;-34.876;138.628;2023-03-30T06:29:18;0.00;0.00;0.00
70197;PMS5003;57582;-34.876;138.628;2023-03-30T06:32:17;0.00;0.00;0.00
70197;PMS5003;57582;-34.876;138.628;2023-03-30T06:35:19;0.00;0.00;0.00
70197;PMS5003;57582;-34.876;138.628;2023-03-30T06:38:19;0.00;0.00;0.00
70197;PMS5003;57582;-34.876;138.628;2023-03-30T06:41:18;0.20;0.00;0.00
70197;PMS5003;57582;-34.876;138.628;2023-03-30T06:44:17;0.53;0.00;0.00
70197;PMS5003;57582;-34.876;138.628;2023-03-30T06:47:17;0.87;0.00;0.00
70197;PMS5003;57582;-34.876;138.628;2023-03-30T06:50:17;0.07;0.00;0.00
70197;PMS5003;57582;-34.876;138.628;2023-03-30T06:53:19;0.47;0.00;0.00
70197;PMS5003;57582;-34.876;138.628;2023-03-30T06:56:17;0.00;0.00;0.00
70197;PMS5003;57582;-34.876;138.628;2023-03-30T06:59:17;0.13;0.13;0.00
70197;PMS5003;57582;-34.876;138.628;2023-03-30T07:02:17;0.00;0.00;0.00
70197;PMS5003;57582;-34.876;138.628;2023-03-30T07:05:18;0.00;0.00;0.00
70197;PMS5003;57582;-34.876;138.628;2023-03-30T07:08:18;0.00;0.00;0.00
70197;PMS5003;57582;-34.876;138.628;2023-03-30T07:11:17;0.00;0.00;0.00
70197;PMS5003;57582;-34.876;138.628;2023-03-30T07:14:17;0.03;0.00;0.00
70197;PMS5003;57582;-34.876;138.628;2023-03-30T07:17:18;0.00;0.00;0.00
70197;PMS5003;57582;-34.876;138.628;2023-03-30T07:20:17;0.07;0.07;0.00
70197;PMS5003;57582;-34.876;138.628;2023-03-30T07:23:18;0.00;0.00;0.00
70197;PMS5003;57582;-34.876;138.628;2023-03-30T07:26:17;0.00;0.00;0.00
70197;PMS5003;57582;-34.876;138.628;2023-03-30T07:29:18;0.00;0.00;0.00
70197;PMS5003;57582;-34.876;138.628;2023-03-30T07:32:18;0.00;0.00;0.00
70197;PMS5003;57582;-34.876;138.628;2023-03-30T07:35:17;0.03;0.03;0.00
70197;PMS5003;57582;-34.876;138.628;2023-03-30T07:38:17;0.10;0.00;0.00
70197;PMS5003;57582;-34.876;138.628;2023-03-30T07:41:18;0.67;0.17;0.00
70197;PMS5003;57582;-34.876;138.628;2023-03-30T07:44:17;0.00;0.00;0.00
70197;PMS5003;57582;-34.876;138.628;2023-03-30T07:47:17;0.43;0.00;0.00
70197;PMS5003;57582;-34.876;138.628;2023-03-30T07:50:17;1.33;0.33;0.00
70197;PMS5003;57582;-34.876;138.628;2023-03-30T07:53:18;0.20;0.20;0.00
70197;PMS5003;57582;-34.876;138.628;2023-03-30T07:56:17;0.00;0.00;0.00
70197;PMS5003;57582;-34.876;138.628;2023-03-30T07:59:18;0.00;0.00;0.00
70197;PMS5003;57582;-34.876;138.628;2023-03-30T08:02:18;0.10;0.10;0.00
70197;PMS5003;57582;-34.876;138.628;2023-03-30T08:05:18;0.00;0.00;0.00
70197;PMS5003;57582;-34.876;138.628;2023-03-30T08:08:17;0.23;0.23;0.00
70197;PMS5003;57582;-34.876;138.628;2023-03-30T08:11:18;0.00;0.00;0.00
70197;PMS5003;57582;-34.876;138.628;2023-03-30T08:14:17;0.00;0.00;0.00
70197;PMS5003;57582;-34.876;138.628;2023-03-30T08:17:18;0.20;0.20;0.00
70197;PMS5003;57582;-34.876;138.628;2023-03-30T08:20:17;0.03;0.03;0.00
70197;PMS5003;57582;-34.876;138.628;2023-03-30T08:23:18;0.13;0.00;0.00
70197;PMS5003;57582;-34.876;138.628;2023-03-30T08:26:18;0.30;0.00;0.00
70197;PMS5003;57582;-34.876;138.628;2023-03-30T08:29:18;0.77;0.77;0.23
70197;PMS5003;57582;-34.876;138.628;2023-03-30T08:32:17;1.53;1.00;0.00
70197;PMS5003;57582;-34.876;138.628;2023-03-30T08:35:18;0.63;0.53;0.13
70197;PMS5003;57582;-34.876;138.628;2023-03-30T08:38:17;1.33;0.90;0.00
70197;PMS5003;57582;-34.876;138.628;2023-03-30T08:44:25;0.13;0.00;0.00
70197;PMS5003;57582;-34.876;138.628;2023-03-30T08:47:25;2.20;0.53;0.00
70197;PMS5003;57582;-34.876;138.628;2023-03-30T08:53:19;1.53;0.43;0.00
70197;PMS5003;57582;-34.876;138.628;2023-03-30T08:56:21;0.63;0.33;0.00
70197;PMS5003;57582;-34.876;138.628;2023-03-30T08:59:25;1.03;0.63;0.13
70197;PMS5003;57582;-34.876;138.628;2023-03-30T09:02:21;0.43;0.00;0.00
70197;PMS5003;57582;-34.876;138.628;2023-03-30T09:05:21;0.33;0.03;0.00
70197;PMS5003;57582;-34.876;138.628;2023-03-30T09:08:22;0.57;0.57;0.33
70197;PMS5003;57582;-34.876;138.628;2023-03-30T09:11:28;0.60;0.00;0.00
70197;PMS5003;57582;-34.876;138.628;2023-03-30T09:14:28;0.00;0.00;0.00
70197;PMS5003;57582;-34.876;138.628;2023-03-30T09:17:21;0.03;0.00;0.00
70197;PMS5003;57582;-34.876;138.628;2023-03-30T09:23:17;1.27;0.20;0.00
70197;PMS5003;57582;-34.876;138.628;2023-03-30T09:29:25;0.00;0.00;0.00
70197;PMS5003;57582;-34.876;138.628;2023-03-30T09:32:30;0.20;0.20;0.00
70197;PMS5003;57582;-34.876;138.628;2023-03-30T09:35:20;0.07;0.00;0.00
70197;PMS5003;57582;-34.876;138.628;2023-03-30T09:38:17;0.57;0.40;0.00
70197;PMS5003;57582;-34.876;138.628;2023-03-30T09:41:40;0.03;0.03;0.00
70197;PMS5003;57582;-34.876;138.628;2023-03-30T09:44:26;0.43;0.43;0.33
70197;PMS5003;57582;-34.876;138.628;2023-03-30T09:47:29;0.00;0.00;0.00
70197;PMS5003;57582;-34.876;138.628;2023-03-30T09:50:25;0.10;0.10;0.03
70197;PMS5003;57582;-34.876;138.628;2023-03-30T09:53:26;1.17;0.00;0.00
70197;PMS5003;57582;-34.876;138.628;2023-03-30T09:56:20;0.63;0.33;0.00
70197;PMS5003;57582;-34.876;138.628;2023-03-30T09:59:25;0.00;0.00;0.00
70197;PMS5003;57582;-34.876;138.628;2023-03-30T10:02:19;0.13;0.00;0.00
70197;PMS5003;57582;-34.876;138.628;2023-03-30T10:05:19;0.93;0.00;0.00
70197;PMS5003;57582;-34.876;138.628;2023-03-30T10:08:20;0.00;0.00;0.00
70197;PMS5003;57582;-34.876;138.628;2023-03-30T10:11:21;0.57;0.00;0.00
70197;PMS5003;57582;-34.876;138.628;2023-03-30T10:17:20;0.33;0.33;0.00
70197;PMS5003;57582;-34.876;138.628;2023-03-30T10:20:28;0.27;0.27;0.00
70197;PMS5003;57582;-34.876;138.628;2023-03-30T10:23:19;0.00;0.00;0.00
70197;PMS5003;57582;-34.876;138.628;2023-03-30T10:26:19;0.33;0.00;0.00
70197;PMS5003;57582;-34.876;138.628;2023-03-30T10:29:22;0.70;0.00;0.00
70197;PMS5003;57582;-34.876;138.628;2023-03-30T10:32:27;0.00;0.00;0.00
70197;PMS5003;57582;-34.876;138.628;2023-03-30T10:35:23;0.13;0.13;0.00
70197;PMS5003;57582;-34.876;138.628;2023-03-30T10:38:19;0.53;0.53;0.53
70197;PMS5003;57582;-34.876;138.628;2023-03-30T10:41:21;1.00;0.40;0.20
70197;PMS5003;57582;-34.876;138.628;2023-03-30T10:44:24;1.80;1.80;0.00
70197;PMS5003;57582;-34.876;138.628;2023-03-30T10:47:33;1.00;0.43;0.00
70197;PMS5003;57582;-34.876;138.628;2023-03-30T10:50:34;0.70;0.10;0.00
70197;PMS5003;57582;-34.876;138.628;2023-03-30T10:56:26;0.10;0.10;0.00
70197;PMS5003;57582;-34.876;138.628;2023-03-30T10:59:38;1.20;0.20;0.00
70197;PMS5003;57582;-34.876;138.628;2023-03-30T11:08:21;1.07;0.00;0.00
70197;PMS5003;57582;-34.876;138.628;2023-03-30T11:11:22;0.10;0.10;0.00
70197;PMS5003;57582;-34.876;138.628;2023-03-30T11:14:24;0.17;0.17;0.00
70197;PMS5003;57582;-34.876;138.628;2023-03-30T11:17:25;0.00;0.00;0.00
70197;PMS5003;57582;-34.876;138.628;2023-03-30T11:20:23;0.00;0.00;0.00
70197;PMS5003;57582;-34.876;138.628;2023-03-30T11:23:24;0.83;0.00;0.00
70197;PMS5003;57582;-34.876;138.628;2023-03-30T11:26:36;0.80;0.80;0.00
70197;PMS5003;57582;-34.876;138.628;2023-03-30T11:38:38;0.00;0.00;0.00
70197;PMS5003;57582;-34.876;138.628;2023-03-30T11:41:26;0.00;0.00;0.00
70197;PMS5003;57582;-34.876;138.628;2023-03-30T11:44:18;0.00;0.00;0.00
70197;PMS5003;57582;-34.876;138.628;2023-03-30T11:47:26;0.03;0.00;0.00
70197;PMS5003;57582;-34.876;138.628;2023-03-30T11:53:31;1.13;0.50;0.00
70197;PMS5003;57582;-34.876;138.628;2023-03-30T11:56:33;0.13;0.13;0.00
70197;PMS5003;57582;-34.876;138.628;2023-03-30T12:02:30;0.00;0.00;0.00
70197;PMS5003;57582;-34.876;138.628;2023-03-30T12:05:42;0.00;0.00;0.00
70197;PMS5003;57582;-34.876;138.628;2023-03-30T12:17:44;0.00;0.00;0.00
70197;PMS5003;57582;-34.876;138.628;2023-03-30T12:29:19;0.70;0.33;0.33
70197;PMS5003;57582;-34.876;138.628;2023-03-30T12:32:22;0.00;0.00;0.00
70197;PMS5003;57582;-34.876;138.628;2023-03-30T12:38:22;0.00;0.00;0.00
70197;PMS5003;57582;-34.876;138.628;2023-03-30T12:41:18;0.00;0.00;0.00
70197;PMS5003;57582;-34.876;138.628;2023-03-30T12:56:34;0.07;0.07;0.00
70197;PMS5003;57582;-34.876;138.628;2023-03-30T12:59:32;0.00;0.00;0.00
70197;PMS5003;57582;-34.876;138.628;2023-03-30T13:05:23;0.00;0.00;0.00
70197;PMS5003;57582;-34.876;138.628;2023-03-30T13:08:32;0.23;0.23;0.00
70197;PMS5003;57582;-34.876;138.628;2023-03-30T13:11:20;0.47;0.13;0.00
70197;PMS5003;57582;-34.876;138.628;2023-03-30T13:17:19;0.00;0.00;0.00
70197;PMS5003;57582;-34.876;138.628;2023-03-30T13:20:19;0.00;0.00;0.00
70197;PMS5003;57582;-34.876;138.628;2023-03-30T13:26:23;0.17;0.17;0.00
70197;PMS5003;57582;-34.876;138.628;2023-03-30T13:29:20;0.00;0.00;0.00
70197;PMS5003;57582;-34.876;138.628;2023-03-30T13:35:28;0.53;0.53;0.00
70197;PMS5003;57582;-34.876;138.628;2023-03-30T13:38:30;0.33;0.33;0.00
70197;PMS5003;57582;-34.876;138.628;2023-03-30T13:41:39;0.00;0.00;0.00
70197;PMS5003;57582;-34.876;138.628;2023-03-30T13:50:27;0.47;0.00;0.00
70197;PMS5003;57582;-34.876;138.628;2023-03-30T13:53:19;0.57;0.03;0.00
70197;PMS5003;57582;-34.876;138.628;2023-03-30T13:56:18;1.47;0.27;0.00
70197;PMS5003;57582;-34.876;138.628;2023-03-30T13:59:21;0.00;0.00;0.00
70197;PMS5003;57582;-34.876;138.628;2023-03-30T14:02:21;0.00;0.00;0.00
70197;PMS5003;57582;-34.876;138.628;2023-03-30T14:05:22;0.00;0.00;0.00
70197;PMS5003;57582;-34.876;138.628;2023-03-30T14:08:18;0.20;0.20;0.00
70197;PMS5003;57582;-34.876;138.628;2023-03-30T14:11:22;0.00;0.00;0.00
70197;PMS5003;57582;-34.876;138.628;2023-03-30T14:17:20;0.10;0.10;0.00
70197;PMS5003;57582;-34.876;138.628;2023-03-30T14:20:24;0.13;0.13;0.00
70197;PMS5003;57582;-34.876;138.628;2023-03-30T14:23:44;0.17;0.17;0.00
70197;PMS5003;57582;-34.876;138.628;2023-03-30T14:26:24;0.13;0.13;0.00
70197;PMS5003;57582;-34.876;138.628;2023-03-30T14:29:20;0.60;0.00;0.00
70197;PMS5003;57582;-34.876;138.628;2023-03-30T14:32:19;0.00;0.00;0.00
70197;PMS5003;57582;-34.876;138.628;2023-03-30T14:35:18;1.00;0.13;0.00
70197;PMS5003;57582;-34.876;138.628;2023-03-30T14:38:28;0.10;0.10;0.00
70197;PMS5003;57582;-34.876;138.628;2023-03-30T14:41:21;0.77;0.10;0.00
70197;PMS5003;57582;-34.876;138.628;2023-03-30T14:44:21;1.00;0.07;0.00
70197;PMS5003;57582;-34.876;138.628;2023-03-30T14:47:21;0.67;0.00;0.00
70197;PMS5003;57582;-34.876;138.628;2023-03-30T14:50:18;0.00;0.00;0.00
70197;PMS5003;57582;-34.876;138.628;2023-03-30T14:53:23;1.40;0.37;0.00
70197;PMS5003;57582;-34.876;138.628;2023-03-30T14:56:20;1.63;0.63;0.23
70197;PMS5003;57582;-34.876;138.628;2023-03-30T14:59:18;1.30;0.73;0.00
70197;PMS5003;57582;-34.876;138.628;2023-03-30T15:02:23;0.07;0.00;0.00
70197;PMS5003;57582;-34.876;138.628;2023-03-30T15:05:23;0.33;0.33;0.00
70197;PMS5003;57582;-34.876;138.628;2023-03-30T15:08:23;0.67;0.60;0.00
70197;PMS5003;57582;-34.876;138.628;2023-03-30T15:11:22;0.60;0.20;0.10
70197;PMS5003;57582;-34.876;138.628;2023-03-30T15:14:20;0.27;0.27;0.00
70197;PMS5003;57582;-34.876;138.628;2023-03-30T15:17:21;1.13;0.60;0.13
70197;PMS5003;57582;-34.876;138.628;2023-03-30T15:20:18;0.33;0.20;0.10
70197;PMS5003;57582;-34.876;138.628;2023-03-30T15:23:18;0.27;0.27;0.00
70197;PMS5003;57582;-34.876;138.628;2023-03-30T15:26:18;0.13;0.13;0.00
70197;PMS5003;57582;-34.876;138.628;2023-03-30T15:29:19;0.90;0.27;0.00
70197;PMS5003;57582;-34.876;138.628;2023-03-30T15:32:25;0.00;0.00;0.00
70197;PMS5003;57582;-34.876;138.628;2023-03-30T15:35:22;0.47;0.33;0.00
70197;PMS5003;57582;-34.876;138.628;2023-03-30T15:38:27;0.87;0.23;0.00
70197;PMS5003;57582;-34.876;138.628;2023-03-30T15:41:41;0.60;0.00;0.00
70197;PMS5003;57582;-34.876;138.628;2023-03-30T15:44:19;1.73;0.63;0.00
70197;PMS5003;57582;-34.876;138.628;2023-03-30T15:47:19;0.30;0.13;0.00
70197;PMS5003;57582;-34.876;138.628;2023-03-30T15:50:18;0.17;0.17;0.03
70197;PMS5003;57582;-34.876;138.628;2023-03-30T15:53:30;0.03;0.03;0.00
70197;PMS5003;57582;-34.876;138.628;2023-03-30T15:56:22;1.87;0.50;0.00
70197;PMS5003;57582;-34.876;138.628;2023-03-30T15:59:19;0.53;0.00;0.00
70197;PMS5003;57582;-34.876;138.628;2023-03-30T16:02:21;1.37;0.83;0.00
70197;PMS5003;57582;-34.876;138.628;2023-03-30T16:05:21;0.23;0.07;0.00
70197;PMS5003;57582;-34.876;138.628;2023-03-30T16:08:18;0.17;0.17;0.00
70197;PMS5003;57582;-34.876;138.628;2023-03-30T16:11:18;0.53;0.33;0.03
70197;PMS5003;57582;-34.876;138.628;2023-03-30T16:14:19;0.23;0.23;0.00
70197;PMS5003;57582;-34.876;138.628;2023-03-30T16:17:19;0.53;0.53;0.00
70197;PMS5003;57582;-34.876;138.628;2023-03-30T16:20:22;0.00;0.00;0.00
70197;PMS5003;57582;-34.876;138.628;2023-03-30T16:23:18;1.13;0.30;0.30
70197;PMS5003;57582;-34.876;138.628;2023-03-30T16:26:18;0.03;0.00;0.00
70197;PMS5003;57582;-34.876;138.628;2023-03-30T16:29:21;0.00;0.00;0.00
70197;PMS5003;57582;-34.876;138.628;2023-03-30T16:32:18;0.00;0.00;0.00
70197;PMS5003;57582;-34.876;138.628;2023-03-30T16:35:18;0.50;0.07;0.00
70197;PMS5003;57582;-34.876;138.628;2023-03-30T16:38:18;0.00;0.00;0.00
70197;PMS5003;57582;-34.876;138.628;2023-03-30T16:41:20;0.67;0.53;0.10
70197;PMS5003;57582;-34.876;138.628;2023-03-30T16:44:20;0.00;0.00;0.00
70197;PMS5003;57582;-34.876;138.628;2023-03-30T16:47:18;0.57;0.00;0.00
70197;PMS5003;57582;-34.876;138.628;2023-03-30T16:53:19;2.00;0.30;0.00
70197;PMS5003;57582;-34.876;138.628;2023-03-30T16:56:18;1.37;0.23;0.00
70197;PMS5003;57582;-34.876;138.628;2023-03-30T16:59:23;0.40;0.40;0.00
70197;PMS5003;57582;-34.876;138.628;2023-03-30T17:02:18;1.43;0.30;0.00
70197;PMS5003;57582;-34.876;138.628;2023-03-30T17:05:19;0.10;0.10;0.00
70197;PMS5003;57582;-34.876;138.628;2023-03-30T17:08:21;0.70;0.70;0.00
70197;PMS5003;57582;-34.876;138.628;2023-03-30T17:11:18;0.57;0.57;0.00
70197;PMS5003;57582;-34.876;138.628;2023-03-30T17:14:18;0.20;0.20;0.03
70197;PMS5003;57582;-34.876;138.628;2023-03-30T17:17:19;0.50;0.07;0.00
70197;PMS5003;57582;-34.876;138.628;2023-03-30T17:20:29;1.90;0.77;0.20
70197;PMS5003;57582;-34.876;138.628;2023-03-30T17:23:21;0.47;0.47;0.13
70197;PMS5003;57582;-34.876;138.628;2023-03-30T17:26:18;0.47;0.47;0.00
70197;PMS5003;57582;-34.876;138.628;2023-03-30T17:29:19;0.33;0.33;0.00
70197;PMS5003;57582;-34.876;138.628;2023-03-30T17:32:18;0.30;0.30;0.00
70197;PMS5003;57582;-34.876;138.628;2023-03-30T17:35:18;0.67;0.67;0.00
70197;PMS5003;57582;-34.876;138.628;2023-03-30T17:38:18;0.00;0.00;0.00
70197;PMS5003;57582;-34.876;138.628;2023-03-30T17:41:19;0.37;0.37;0.03
70197;PMS5003;57582;-34.876;138.628;2023-03-30T17:44:19;0.00;0.00;0.00
70197;PMS5003;57582;-34.876;138.628;2023-03-30T17:47:18;0.00;0.00;0.00
70197;PMS5003;57582;-34.876;138.628;2023-03-30T17:50:21;1.50;0.80;0.00
70197;PMS5003;57582;-34.876;138.628;2023-03-30T17:53:20;0.70;0.70;0.00
70197;PMS5003;57582;-34.876;138.628;2023-03-30T17:56:18;0.40;0.40;0.00
70197;PMS5003;57582;-34.876;138.628;2023-03-30T17:59:18;0.33;0.00;0.00
70197;PMS5003;57582;-34.876;138.628;2023-03-30T18:02:18;1.80;1.27;0.47
70197;PMS5003;57582;-34.876;138.628;2023-03-30T18:05:22;1.10;0.60;0.00
70197;PMS5003;57582;-34.876;138.628;2023-03-30T18:08:20;0.13;0.13;0.00
70197;PMS5003;57582;-34.876;138.628;2023-03-30T18:11:18;0.60;0.27;0.00
70197;PMS5003;57582;-34.876;138.628;2023-03-30T18:14:18;0.40;0.40;0.00
70197;PMS5003;57582;-34.876;138.628;2023-03-30T18:17:19;0.00;0.00;0.00
70197;PMS5003;57582;-34.876;138.628;2023-03-30T18:23:19;0.00;0.00;0.00
70197;PMS5003;57582;-34.876;138.628;2023-03-30T18:26:18;0.00;0.00;0.00
70197;PMS5003;57582;-34.876;138.628;2023-03-30T18:29:20;0.33;0.20;0.00
70197;PMS5003;57582;-34.876;138.628;2023-03-30T18:32:18;0.00;0.00;0.00
70197;PMS5003;57582;-34.876;138.628;2023-03-30T18:35:20;0.37;0.00;0.00
70197;PMS5003;57582;-34.876;138.628;2023-03-30T18:38:20;0.07;0.00;0.00
70197;PMS5003;57582;-34.876;138.628;2023-03-30T18:41:20;0.27;0.27;0.00
70197;PMS5003;57582;-34.876;138.628;2023-03-30T18:44:19;0.93;0.00;0.00
70197;PMS5003;57582;-34.876;138.628;2023-03-30T18:47:18;0.00;0.00;0.00
70197;PMS5003;57582;-34.876;138.628;2023-03-30T18:50:22;1.23;0.40;0.00
70197;PMS5003;57582;-34.876;138.628;2023-03-30T18:53:21;0.00;0.00;0.00
70197;PMS5003;57582;-34.876;138.628;2023-03-30T18:56:18;0.43;0.10;0.00
70197;PMS5003;57582;-34.876;138.628;2023-03-30T18:59:18;0.60;0.00;0.00
70197;PMS5003;57582;-34.876;138.628;2023-03-30T19:02:18;0.70;0.70;0.00
70197;PMS5003;57582;-34.876;138.628;2023-03-30T19:05:21;0.00;0.00;0.00
70197;PMS5003;57582;-34.876;138.628;2023-03-30T19:08:21;0.50;0.50;0.00